sensor_id;sensor_type;location;lat;lon;timestamp;P1;durP1;ratioP1;P2;durP2;ratioP2
21802;SDS011;18591;47.080;22.214;2022-10-31T00:00:54;56.20;;;35.03;;
21802;SDS011;18591;47.080;22.214;2022-10-31T00:02:57;55.33;;;35.95;;
21802;SDS011;18591;47.080;22.214;2022-10-31T00:04:59;55.22;;;35.22;;
21802;SDS011;18591;47.080;22.214;2022-10-31T00:07:02;55.83;;;34.75;;
21802;SDS011;18591;47.080;22.214;2022-10-31T00:09:06;54.92;;;34.80;;
21802;SDS011;18591;47.080;22.214;2022-10-31T00:11:08;56.30;;;36.25;;
21802;SDS011;18591;47.080;22.214;2022-10-31T00:13:12;63.05;;;39.13;;
21802;SDS011;18591;47.080;22.214;2022-10-31T00:15:15;65.22;;;38.13;;
21802;SDS011;18591;47.080;22.214;2022-10-31T00:17:18;61.95;;;37.53;;
21802;SDS011;18591;47.080;22.214;2022-10-31T00:19:20;65.55;;;37.28;;
21802;SDS011;18591;47.080;22.214;2022-10-31T00:21:22;62.03;;;37.25;;
21802;SDS011;18591;47.080;22.214;2022-10-31T00:23:25;58.60;;;35.80;;
21802;SDS011;18591;47.080;22.214;2022-10-31T00:25:28;63.15;;;37.83;;
21802;SDS011;18591;47.080;22.214;2022-10-31T00:27:30;64.40;;;39.20;;
21802;SDS011;18591;47.080;22.214;2022-10-31T00:29:33;57.25;;;34.78;;
21802;SDS011;18591;47.080;22.214;2022-10-31T00:31:35;61.78;;;35.83;;
21802;SDS011;18591;47.080;22.214;2022-10-31T00:33:38;56.45;;;35.65;;
21802;SDS011;18591;47.080;22.214;2022-10-31T00:35:41;92.45;;;51.65;;
21802;SDS011;18591;47.080;22.214;2022-10-31T00:37:43;106.88;;;66.57;;
21802;SDS011;18591;47.080;22.214;2022-10-31T00:39:45;116.50;;;70.20;;
21802;SDS011;18591;47.080;22.214;2022-10-31T00:41:49;111.28;;;69.65;;
21802;SDS011;18591;47.080;22.214;2022-10-31T00:43:53;169.70;;;99.63;;
21802;SDS011;18591;47.080;22.214;2022-10-31T00:45:56;187.07;;;114.32;;
21802;SDS011;18591;47.080;22.214;2022-10-31T00:47:58;230.70;;;141.43;;
21802;SDS011;18591;47.080;22.214;2022-10-31T00:50:01;194.50;;;121.40;;
21802;SDS011;18591;47.080;22.214;2022-10-31T00:52:03;156.68;;;98.15;;
21802;SDS011;18591;47.080;22.214;2022-10-31T00:54:05;123.03;;;72.70;;
21802;SDS011;18591;47.080;22.214;2022-10-31T00:56:08;97.00;;;58.10;;
21802;SDS011;18591;47.080;22.214;2022-10-31T00:58:10;82.75;;;48.53;;
21802;SDS011;18591;47.080;22.214;2022-10-31T01:00:13;86.55;;;46.70;;
21802;SDS011;18591;47.080;22.214;2022-10-31T01:02:16;80.55;;;45.25;;
21802;SDS011;18591;47.080;22.214;2022-10-31T01:04:18;99.03;;;56.15;;
21802;SDS011;18591;47.080;22.214;2022-10-31T01:06:20;105.00;;;59.17;;
21802;SDS011;18591;47.080;22.214;2022-10-31T01:08:22;92.53;;;53.58;;
21802;SDS011;18591;47.080;22.214;2022-10-31T01:10:24;91.10;;;52.97;;
21802;SDS011;18591;47.080;22.214;2022-10-31T01:12:27;74.63;;;45.58;;
21802;SDS011;18591;47.080;22.214;2022-10-31T01:14:30;78.57;;;45.92;;
21802;SDS011;18591;47.080;22.214;2022-10-31T01:16:32;78.60;;;45.95;;
21802;SDS011;18591;47.080;22.214;2022-10-31T01:18:35;83.78;;;47.38;;
21802;SDS011;18591;47.080;22.214;2022-10-31T01:20:42;83.53;;;48.92;;
21802;SDS011;18591;47.080;22.214;2022-10-31T01:22:46;106.55;;;61.47;;
21802;SDS011;18591;47.080;22.214;2022-10-31T01:24:49;173.52;;;92.32;;
21802;SDS011;18591;47.080;22.214;2022-10-31T01:26:53;171.18;;;93.97;;
21802;SDS011;18591;47.080;22.214;2022-10-31T01:31:06;129.45;;;73.18;;
21802;SDS011;18591;47.080;22.214;2022-10-31T01:33:10;161.57;;;85.03;;
21802;SDS011;18591;47.080;22.214;2022-10-31T01:35:12;157.55;;;83.72;;
21802;SDS011;18591;47.080;22.214;2022-10-31T01:37:14;174.82;;;88.47;;
21802;SDS011;18591;47.080;22.214;2022-10-31T01:39:17;315.88;;;144.93;;
21802;SDS011;18591;47.080;22.214;2022-10-31T01:41:23;284.17;;;134.43;;
21802;SDS011;18591;47.080;22.214;2022-10-31T01:45:54;528.13;;;219.35;;
21802;SDS011;18591;47.080;22.214;2022-10-31T01:47:56;412.30;;;174.25;;
21802;SDS011;18591;47.080;22.214;2022-10-31T01:50:00;514.05;;;223.82;;
21802;SDS011;18591;47.080;22.214;2022-10-31T01:52:07;537.63;;;238.70;;
21802;SDS011;18591;47.080;22.214;2022-10-31T01:54:15;476.67;;;204.68;;
21802;SDS011;18591;47.080;22.214;2022-10-31T01:56:20;355.23;;;153.98;;
21802;SDS011;18591;47.080;22.214;2022-10-31T01:58:24;332.15;;;144.25;;
21802;SDS011;18591;47.080;22.214;2022-10-31T02:00:29;272.27;;;120.15;;
21802;SDS011;18591;47.080;22.214;2022-10-31T02:02:33;225.80;;;105.57;;
21802;SDS011;18591;47.080;22.214;2022-10-31T02:04:38;220.40;;;103.53;;
21802;SDS011;18591;47.080;22.214;2022-10-31T02:06:53;211.90;;;100.28;;
21802;SDS011;18591;47.080;22.214;2022-10-31T02:09:00;227.00;;;107.63;;
21802;SDS011;18591;47.080;22.214;2022-10-31T02:11:05;242.30;;;113.88;;
21802;SDS011;18591;47.080;22.214;2022-10-31T02:13:10;341.88;;;160.13;;
21802;SDS011;18591;47.080;22.214;2022-10-31T02:15:20;222.30;;;110.80;;
21802;SDS011;18591;47.080;22.214;2022-10-31T02:17:23;213.55;;;106.18;;
21802;SDS011;18591;47.080;22.214;2022-10-31T02:22:09;162.32;;;87.57;;
21802;SDS011;18591;47.080;22.214;2022-10-31T02:27:03;94.88;;;56.85;;
21802;SDS011;18591;47.080;22.214;2022-10-31T02:33:51;114.03;;;71.28;;
21802;SDS011;18591;47.080;22.214;2022-10-31T02:36:11;107.20;;;66.10;;
21802;SDS011;18591;47.080;22.214;2022-10-31T02:38:48;93.03;;;52.35;;
21802;SDS011;18591;47.080;22.214;2022-10-31T02:41:20;85.97;;;51.13;;
21802;SDS011;18591;47.080;22.214;2022-10-31T02:44:22;80.38;;;49.05;;
21802;SDS011;18591;47.080;22.214;2022-10-31T02:46:22;75.75;;;46.40;;
21802;SDS011;18591;47.080;22.214;2022-10-31T02:48:33;95.38;;;56.03;;
21802;SDS011;18591;47.080;22.214;2022-10-31T02:50:39;94.57;;;56.78;;
21802;SDS011;18591;47.080;22.214;2022-10-31T02:52:49;102.25;;;60.53;;
21802;SDS011;18591;47.080;22.214;2022-10-31T02:54:53;100.68;;;63.47;;
21802;SDS011;18591;47.080;22.214;2022-10-31T02:57:00;114.47;;;64.72;;
21802;SDS011;18591;47.080;22.214;2022-10-31T02:59:07;124.43;;;68.15;;
21802;SDS011;18591;47.080;22.214;2022-10-31T03:01:21;226.20;;;135.30;;
21802;SDS011;18591;47.080;22.214;2022-10-31T03:06:09;521.92;;;328.95;;
21802;SDS011;18591;47.080;22.214;2022-10-31T03:08:50;396.90;;;246.85;;
21802;SDS011;18591;47.080;22.214;2022-10-31T03:11:01;335.30;;;216.52;;
21802;SDS011;18591;47.080;22.214;2022-10-31T03:15:26;527.50;;;344.42;;
21802;SDS011;18591;47.080;22.214;2022-10-31T03:17:45;544.60;;;370.23;;
21802;SDS011;18591;47.080;22.214;2022-10-31T03:19:56;541.58;;;369.77;;
21802;SDS011;18591;47.080;22.214;2022-10-31T03:22:03;479.88;;;329.17;;
21802;SDS011;18591;47.080;22.214;2022-10-31T03:24:12;433.00;;;299.92;;
21802;SDS011;18591;47.080;22.214;2022-10-31T03:26:16;358.77;;;246.10;;
21802;SDS011;18591;47.080;22.214;2022-10-31T03:28:20;249.38;;;163.07;;
21802;SDS011;18591;47.080;22.214;2022-10-31T03:30:27;177.80;;;111.05;;
21802;SDS011;18591;47.080;22.214;2022-10-31T03:32:36;153.75;;;95.85;;
21802;SDS011;18591;47.080;22.214;2022-10-31T03:34:43;129.30;;;79.85;;
21802;SDS011;18591;47.080;22.214;2022-10-31T03:36:50;119.53;;;72.25;;
21802;SDS011;18591;47.080;22.214;2022-10-31T03:38:56;156.40;;;94.07;;
21802;SDS011;18591;47.080;22.214;2022-10-31T03:41:00;137.32;;;86.07;;
21802;SDS011;18591;47.080;22.214;2022-10-31T03:43:08;148.45;;;91.30;;
21802;SDS011;18591;47.080;22.214;2022-10-31T03:45:26;156.82;;;94.38;;
21802;SDS011;18591;47.080;22.214;2022-10-31T03:47:32;135.13;;;83.60;;
21802;SDS011;18591;47.080;22.214;2022-10-31T03:49:36;119.18;;;70.38;;
21802;SDS011;18591;47.080;22.214;2022-10-31T03:56:06;94.18;;;52.72;;
21802;SDS011;18591;47.080;22.214;2022-10-31T04:00:27;126.63;;;75.68;;
21802;SDS011;18591;47.080;22.214;2022-10-31T04:02:32;113.43;;;70.10;;
21802;SDS011;18591;47.080;22.214;2022-10-31T04:04:36;99.45;;;58.92;;
21802;SDS011;18591;47.080;22.214;2022-10-31T04:06:41;100.40;;;60.17;;
21802;SDS011;18591;47.080;22.214;2022-10-31T04:08:49;136.60;;;84.63;;
21802;SDS011;18591;47.080;22.214;2022-10-31T04:10:56;129.63;;;83.15;;
21802;SDS011;18591;47.080;22.214;2022-10-31T04:13:02;90.75;;;55.35;;
21802;SDS011;18591;47.080;22.214;2022-10-31T04:15:22;76.57;;;45.80;;
21802;SDS011;18591;47.080;22.214;2022-10-31T04:17:27;65.80;;;39.75;;
21802;SDS011;18591;47.080;22.214;2022-10-31T04:19:33;68.78;;;40.88;;
21802;SDS011;18591;47.080;22.214;2022-10-31T04:21:38;71.80;;;39.05;;
21802;SDS011;18591;47.080;22.214;2022-10-31T04:23:41;109.65;;;62.65;;
21802;SDS011;18591;47.080;22.214;2022-10-31T04:25:58;215.55;;;126.95;;
21802;SDS011;18591;47.080;22.214;2022-10-31T04:28:03;193.48;;;117.85;;
21802;SDS011;18591;47.080;22.214;2022-10-31T04:30:12;151.40;;;92.97;;
21802;SDS011;18591;47.080;22.214;2022-10-31T04:32:14;152.13;;;91.65;;
21802;SDS011;18591;47.080;22.214;2022-10-31T04:34:16;132.90;;;78.18;;
21802;SDS011;18591;47.080;22.214;2022-10-31T04:38:49;165.38;;;99.72;;
21802;SDS011;18591;47.080;22.214;2022-10-31T04:41:05;148.85;;;93.43;;
21802;SDS011;18591;47.080;22.214;2022-10-31T04:43:34;129.82;;;77.53;;
21802;SDS011;18591;47.080;22.214;2022-10-31T04:45:38;121.30;;;71.30;;
21802;SDS011;18591;47.080;22.214;2022-10-31T04:47:42;167.82;;;96.80;;
21802;SDS011;18591;47.080;22.214;2022-10-31T04:49:44;232.15;;;131.25;;
21802;SDS011;18591;47.080;22.214;2022-10-31T04:51:47;218.73;;;126.03;;
21802;SDS011;18591;47.080;22.214;2022-10-31T04:57:49;99.32;;;59.33;;
21802;SDS011;18591;47.080;22.214;2022-10-31T04:59:53;103.80;;;59.53;;
21802;SDS011;18591;47.080;22.214;2022-10-31T05:01:57;100.63;;;58.58;;
21802;SDS011;18591;47.080;22.214;2022-10-31T05:04:14;87.70;;;50.83;;
21802;SDS011;18591;47.080;22.214;2022-10-31T05:06:16;81.50;;;45.78;;
21802;SDS011;18591;47.080;22.214;2022-10-31T05:08:19;87.40;;;46.20;;
21802;SDS011;18591;47.080;22.214;2022-10-31T05:10:25;83.72;;;43.40;;
21802;SDS011;18591;47.080;22.214;2022-10-31T05:12:32;82.50;;;41.05;;
21802;SDS011;18591;47.080;22.214;2022-10-31T05:14:40;66.03;;;35.45;;
21802;SDS011;18591;47.080;22.214;2022-10-31T05:17:14;64.18;;;32.53;;
21802;SDS011;18591;47.080;22.214;2022-10-31T05:19:34;63.00;;;31.40;;
21802;SDS011;18591;47.080;22.214;2022-10-31T05:21:56;59.10;;;30.45;;
21802;SDS011;18591;47.080;22.214;2022-10-31T05:23:58;69.53;;;33.65;;
21802;SDS011;18591;47.080;22.214;2022-10-31T05:26:01;56.45;;;26.35;;
21802;SDS011;18591;47.080;22.214;2022-10-31T05:28:03;53.05;;;26.15;;
21802;SDS011;18591;47.080;22.214;2022-10-31T05:30:07;48.05;;;25.55;;
21802;SDS011;18591;47.080;22.214;2022-10-31T05:32:09;47.60;;;22.75;;
21802;SDS011;18591;47.080;22.214;2022-10-31T05:34:47;94.05;;;54.83;;
21802;SDS011;18591;47.080;22.214;2022-10-31T05:37:24;70.10;;;40.97;;
21802;SDS011;18591;47.080;22.214;2022-10-31T05:39:26;62.75;;;37.38;;
21802;SDS011;18591;47.080;22.214;2022-10-31T05:41:32;54.35;;;31.00;;
21802;SDS011;18591;47.080;22.214;2022-10-31T05:43:49;63.75;;;36.65;;
21802;SDS011;18591;47.080;22.214;2022-10-31T05:45:56;59.72;;;34.88;;
21802;SDS011;18591;47.080;22.214;2022-10-31T05:48:17;60.70;;;31.33;;
21802;SDS011;18591;47.080;22.214;2022-10-31T05:50:42;59.30;;;29.42;;
21802;SDS011;18591;47.080;22.214;2022-10-31T05:52:44;42.10;;;24.73;;
21802;SDS011;18591;47.080;22.214;2022-10-31T05:54:54;47.45;;;24.88;;
21802;SDS011;18591;47.080;22.214;2022-10-31T05:56:56;42.13;;;22.08;;
21802;SDS011;18591;47.080;22.214;2022-10-31T05:58:58;44.72;;;23.25;;
21802;SDS011;18591;47.080;22.214;2022-10-31T06:01:01;44.45;;;22.83;;
21802;SDS011;18591;47.080;22.214;2022-10-31T06:03:04;42.78;;;22.08;;
21802;SDS011;18591;47.080;22.214;2022-10-31T06:05:28;60.50;;;26.85;;
21802;SDS011;18591;47.080;22.214;2022-10-31T06:07:32;50.88;;;24.35;;
21802;SDS011;18591;47.080;22.214;2022-10-31T06:09:35;41.58;;;22.58;;
21802;SDS011;18591;47.080;22.214;2022-10-31T06:11:37;37.08;;;21.35;;
21802;SDS011;18591;47.080;22.214;2022-10-31T06:13:39;33.30;;;19.88;;
21802;SDS011;18591;47.080;22.214;2022-10-31T06:15:49;38.78;;;21.52;;
21802;SDS011;18591;47.080;22.214;2022-10-31T06:18:02;50.70;;;26.38;;
21802;SDS011;18591;47.080;22.214;2022-10-31T06:20:13;46.10;;;24.88;;
21802;SDS011;18591;47.080;22.214;2022-10-31T06:22:27;44.63;;;25.45;;
21802;SDS011;18591;47.080;22.214;2022-10-31T06:24:29;52.67;;;27.27;;
21802;SDS011;18591;47.080;22.214;2022-10-31T06:26:38;44.97;;;23.45;;
21802;SDS011;18591;47.080;22.214;2022-10-31T06:28:42;48.67;;;28.85;;
21802;SDS011;18591;47.080;22.214;2022-10-31T06:30:56;68.00;;;41.00;;
21802;SDS011;18591;47.080;22.214;2022-10-31T06:33:01;91.07;;;53.88;;
21802;SDS011;18591;47.080;22.214;2022-10-31T06:35:10;125.18;;;73.55;;
21802;SDS011;18591;47.080;22.214;2022-10-31T06:37:14;129.95;;;77.43;;
21802;SDS011;18591;47.080;22.214;2022-10-31T06:39:20;120.07;;;74.68;;
21802;SDS011;18591;47.080;22.214;2022-10-31T06:41:22;91.90;;;57.67;;
21802;SDS011;18591;47.080;22.214;2022-10-31T06:43:26;85.82;;;50.20;;
21802;SDS011;18591;47.080;22.214;2022-10-31T06:46:03;98.30;;;55.75;;
21802;SDS011;18591;47.080;22.214;2022-10-31T06:48:13;111.10;;;66.68;;
21802;SDS011;18591;47.080;22.214;2022-10-31T06:50:44;113.32;;;63.95;;
21802;SDS011;18591;47.080;22.214;2022-10-31T06:52:53;118.28;;;64.43;;
21802;SDS011;18591;47.080;22.214;2022-10-31T06:54:57;97.80;;;54.75;;
21802;SDS011;18591;47.080;22.214;2022-10-31T06:56:59;89.18;;;51.58;;
21802;SDS011;18591;47.080;22.214;2022-10-31T06:59:02;65.97;;;38.50;;
21802;SDS011;18591;47.080;22.214;2022-10-31T07:01:22;62.03;;;36.38;;
21802;SDS011;18591;47.080;22.214;2022-10-31T07:03:25;48.13;;;29.35;;
21802;SDS011;18591;47.080;22.214;2022-10-31T07:05:27;44.67;;;28.63;;
21802;SDS011;18591;47.080;22.214;2022-10-31T07:07:30;48.08;;;27.92;;
21802;SDS011;18591;47.080;22.214;2022-10-31T07:09:32;49.90;;;27.45;;
21802;SDS011;18591;47.080;22.214;2022-10-31T07:11:38;66.35;;;38.83;;
21802;SDS011;18591;47.080;22.214;2022-10-31T07:13:40;60.22;;;34.97;;
21802;SDS011;18591;47.080;22.214;2022-10-31T07:15:43;51.63;;;30.83;;
21802;SDS011;18591;47.080;22.214;2022-10-31T07:17:47;54.08;;;31.92;;
21802;SDS011;18591;47.080;22.214;2022-10-31T07:19:49;51.50;;;32.03;;
21802;SDS011;18591;47.080;22.214;2022-10-31T07:21:51;58.42;;;34.25;;
21802;SDS011;18591;47.080;22.214;2022-10-31T07:23:53;48.80;;;30.73;;
21802;SDS011;18591;47.080;22.214;2022-10-31T07:26:13;45.78;;;30.42;;
21802;SDS011;18591;47.080;22.214;2022-10-31T07:28:21;48.17;;;28.30;;
21802;SDS011;18591;47.080;22.214;2022-10-31T07:30:25;42.63;;;22.63;;
21802;SDS011;18591;47.080;22.214;2022-10-31T07:34:41;39.70;;;19.48;;
21802;SDS011;18591;47.080;22.214;2022-10-31T07:37:02;42.30;;;20.92;;
21802;SDS011;18591;47.080;22.214;2022-10-31T07:39:05;43.45;;;22.63;;
21802;SDS011;18591;47.080;22.214;2022-10-31T07:41:09;41.72;;;21.67;;
21802;SDS011;18591;47.080;22.214;2022-10-31T07:43:15;39.42;;;20.15;;
21802;SDS011;18591;47.080;22.214;2022-10-31T07:45:36;38.92;;;21.13;;
21802;SDS011;18591;47.080;22.214;2022-10-31T07:47:57;41.00;;;21.70;;
21802;SDS011;18591;47.080;22.214;2022-10-31T07:50:19;35.83;;;19.17;;
21802;SDS011;18591;47.080;22.214;2022-10-31T07:52:44;43.67;;;21.88;;
21802;SDS011;18591;47.080;22.214;2022-10-31T07:55:17;37.38;;;22.20;;
21802;SDS011;18591;47.080;22.214;2022-10-31T07:57:22;44.20;;;23.35;;
21802;SDS011;18591;47.080;22.214;2022-10-31T07:59:26;38.83;;;23.23;;
21802;SDS011;18591;47.080;22.214;2022-10-31T08:01:28;41.38;;;22.15;;
21802;SDS011;18591;47.080;22.214;2022-10-31T08:03:52;46.75;;;26.52;;
21802;SDS011;18591;47.080;22.214;2022-10-31T08:06:13;71.68;;;48.60;;
21802;SDS011;18591;47.080;22.214;2022-10-31T08:08:21;58.67;;;37.53;;
21802;SDS011;18591;47.080;22.214;2022-10-31T08:10:23;51.60;;;32.13;;
21802;SDS011;18591;47.080;22.214;2022-10-31T08:12:26;50.42;;;28.45;;
21802;SDS011;18591;47.080;22.214;2022-10-31T08:14:28;41.95;;;25.25;;
21802;SDS011;18591;47.080;22.214;2022-10-31T08:16:31;44.20;;;24.83;;
21802;SDS011;18591;47.080;22.214;2022-10-31T08:18:35;42.95;;;24.35;;
21802;SDS011;18591;47.080;22.214;2022-10-31T08:20:42;40.22;;;23.27;;
21802;SDS011;18591;47.080;22.214;2022-10-31T08:22:56;37.95;;;21.88;;
21802;SDS011;18591;47.080;22.214;2022-10-31T08:25:03;36.53;;;23.77;;
21802;SDS011;18591;47.080;22.214;2022-10-31T08:27:05;44.13;;;25.45;;
21802;SDS011;18591;47.080;22.214;2022-10-31T08:29:07;47.67;;;27.75;;
21802;SDS011;18591;47.080;22.214;2022-10-31T08:31:11;55.10;;;32.80;;
21802;SDS011;18591;47.080;22.214;2022-10-31T08:33:16;51.53;;;30.30;;
21802;SDS011;18591;47.080;22.214;2022-10-31T08:35:38;49.85;;;29.67;;
21802;SDS011;18591;47.080;22.214;2022-10-31T08:38:13;48.65;;;31.27;;
21802;SDS011;18591;47.080;22.214;2022-10-31T08:40:16;45.00;;;27.67;;
21802;SDS011;18591;47.080;22.214;2022-10-31T08:42:18;49.90;;;28.95;;
21802;SDS011;18591;47.080;22.214;2022-10-31T08:44:21;47.78;;;28.55;;
21802;SDS011;18591;47.080;22.214;2022-10-31T08:46:23;46.25;;;28.48;;
21802;SDS011;18591;47.080;22.214;2022-10-31T08:48:25;54.78;;;30.65;;
21802;SDS011;18591;47.080;22.214;2022-10-31T08:50:28;54.33;;;31.50;;
21802;SDS011;18591;47.080;22.214;2022-10-31T08:52:31;47.42;;;29.33;;
21802;SDS011;18591;47.080;22.214;2022-10-31T08:54:54;42.33;;;28.95;;
21802;SDS011;18591;47.080;22.214;2022-10-31T08:57:22;44.63;;;27.90;;
21802;SDS011;18591;47.080;22.214;2022-10-31T08:59:24;47.80;;;29.02;;
21802;SDS011;18591;47.080;22.214;2022-10-31T09:01:45;58.90;;;33.35;;
21802;SDS011;18591;47.080;22.214;2022-10-31T09:03:48;45.85;;;28.83;;
21802;SDS011;18591;47.080;22.214;2022-10-31T09:05:50;45.03;;;29.98;;
21802;SDS011;18591;47.080;22.214;2022-10-31T09:07:57;48.15;;;28.95;;
21802;SDS011;18591;47.080;22.214;2022-10-31T09:10:01;47.30;;;29.27;;
21802;SDS011;18591;47.080;22.214;2022-10-31T09:12:07;47.42;;;30.33;;
21802;SDS011;18591;47.080;22.214;2022-10-31T09:14:28;55.40;;;30.48;;
21802;SDS011;18591;47.080;22.214;2022-10-31T09:16:56;52.95;;;30.60;;
21802;SDS011;18591;47.080;22.214;2022-10-31T09:19:06;61.00;;;35.17;;
21802;SDS011;18591;47.080;22.214;2022-10-31T09:21:12;55.15;;;34.97;;
21802;SDS011;18591;47.080;22.214;2022-10-31T09:23:18;61.50;;;35.03;;
21802;SDS011;18591;47.080;22.214;2022-10-31T09:25:23;54.45;;;34.80;;
21802;SDS011;18591;47.080;22.214;2022-10-31T09:27:39;57.70;;;34.45;;
21802;SDS011;18591;47.080;22.214;2022-10-31T09:29:42;56.10;;;33.30;;
21802;SDS011;18591;47.080;22.214;2022-10-31T09:31:45;50.72;;;32.17;;
21802;SDS011;18591;47.080;22.214;2022-10-31T09:34:02;50.05;;;31.08;;
21802;SDS011;18591;47.080;22.214;2022-10-31T09:36:10;47.63;;;29.60;;
21802;SDS011;18591;47.080;22.214;2022-10-31T09:38:15;49.05;;;30.50;;
21802;SDS011;18591;47.080;22.214;2022-10-31T09:40:20;81.40;;;47.22;;
21802;SDS011;18591;47.080;22.214;2022-10-31T09:44:58;64.47;;;38.88;;
21802;SDS011;18591;47.080;22.214;2022-10-31T09:49:29;80.15;;;46.38;;
21802;SDS011;18591;47.080;22.214;2022-10-31T09:51:43;65.63;;;41.75;;
21802;SDS011;18591;47.080;22.214;2022-10-31T09:54:12;61.65;;;36.50;;
21802;SDS011;18591;47.080;22.214;2022-10-31T09:56:20;61.92;;;39.33;;
21802;SDS011;18591;47.080;22.214;2022-10-31T09:58:26;50.88;;;32.58;;
21802;SDS011;18591;47.080;22.214;2022-10-31T10:00:31;61.08;;;37.45;;
21802;SDS011;18591;47.080;22.214;2022-10-31T10:02:39;66.72;;;42.05;;
21802;SDS011;18591;47.080;22.214;2022-10-31T10:04:54;67.28;;;39.25;;
21802;SDS011;18591;47.080;22.214;2022-10-31T10:10:42;75.63;;;49.33;;
21802;SDS011;18591;47.080;22.214;2022-10-31T10:13:33;64.00;;;42.97;;
21802;SDS011;18591;47.080;22.214;2022-10-31T10:20:16;112.82;;;78.03;;
21802;SDS011;18591;47.080;22.214;2022-10-31T10:29:29;30.77;;;22.33;;
21802;SDS011;18591;47.080;22.214;2022-10-31T10:31:37;32.78;;;23.48;;
21802;SDS011;18591;47.080;22.214;2022-10-31T10:36:21;31.73;;;22.83;;
21802;SDS011;18591;47.080;22.214;2022-10-31T10:38:49;30.13;;;21.63;;
21802;SDS011;18591;47.080;22.214;2022-10-31T10:40:52;28.52;;;21.48;;
21802;SDS011;18591;47.080;22.214;2022-10-31T10:45:17;37.15;;;27.25;;
21802;SDS011;18591;47.080;22.214;2022-10-31T10:47:41;36.75;;;25.77;;
21802;SDS011;18591;47.080;22.214;2022-10-31T10:49:49;47.00;;;31.55;;
21802;SDS011;18591;47.080;22.214;2022-10-31T10:59:25;60.90;;;44.00;;
21802;SDS011;18591;47.080;22.214;2022-10-31T11:01:28;73.70;;;52.78;;
21802;SDS011;18591;47.080;22.214;2022-10-31T11:03:30;80.75;;;58.83;;
21802;SDS011;18591;47.080;22.214;2022-10-31T11:07:52;107.30;;;77.82;;
21802;SDS011;18591;47.080;22.214;2022-10-31T11:10:02;103.45;;;75.35;;
21802;SDS011;18591;47.080;22.214;2022-10-31T11:14:33;50.20;;;37.22;;
21802;SDS011;18591;47.080;22.214;2022-10-31T11:16:45;39.78;;;28.17;;
21802;SDS011;18591;47.080;22.214;2022-10-31T11:18:49;36.85;;;27.23;;
21802;SDS011;18591;47.080;22.214;2022-10-31T11:20:52;35.38;;;22.00;;
21802;SDS011;18591;47.080;22.214;2022-10-31T11:23:15;27.60;;;20.75;;
21802;SDS011;18591;47.080;22.214;2022-10-31T11:25:22;27.77;;;20.73;;
21802;SDS011;18591;47.080;22.214;2022-10-31T11:27:25;29.65;;;20.95;;
21802;SDS011;18591;47.080;22.214;2022-10-31T11:29:27;29.92;;;22.20;;
21802;SDS011;18591;47.080;22.214;2022-10-31T11:31:29;30.73;;;22.75;;
21802;SDS011;18591;47.080;22.214;2022-10-31T11:33:34;46.50;;;29.50;;
21802;SDS011;18591;47.080;22.214;2022-10-31T11:35:39;51.45;;;32.83;;
21802;SDS011;18591;47.080;22.214;2022-10-31T11:37:42;63.33;;;39.33;;
21802;SDS011;18591;47.080;22.214;2022-10-31T11:39:51;86.60;;;52.03;;
21802;SDS011;18591;47.080;22.214;2022-10-31T11:41:55;99.68;;;61.67;;
21802;SDS011;18591;47.080;22.214;2022-10-31T11:44:13;139.70;;;84.63;;
21802;SDS011;18591;47.080;22.214;2022-10-31T11:46:21;132.27;;;79.35;;
21802;SDS011;18591;47.080;22.214;2022-10-31T11:48:29;128.27;;;76.70;;
21802;SDS011;18591;47.080;22.214;2022-10-31T11:50:34;92.30;;;57.33;;
21802;SDS011;18591;47.080;22.214;2022-10-31T11:52:44;90.72;;;57.20;;
21802;SDS011;18591;47.080;22.214;2022-10-31T11:56:56;76.55;;;46.33;;
21802;SDS011;18591;47.080;22.214;2022-10-31T11:59:01;65.53;;;41.28;;
21802;SDS011;18591;47.080;22.214;2022-10-31T12:01:04;73.63;;;46.60;;
21802;SDS011;18591;47.080;22.214;2022-10-31T12:05:19;65.78;;;42.85;;
21802;SDS011;18591;47.080;22.214;2022-10-31T12:10:10;72.38;;;48.08;;
21802;SDS011;18591;47.080;22.214;2022-10-31T12:16:46;122.93;;;74.03;;
21802;SDS011;18591;47.080;22.214;2022-10-31T12:33:29;97.38;;;59.17;;
21802;SDS011;18591;47.080;22.214;2022-10-31T12:56:06;110.05;;;62.28;;
21802;SDS011;18591;47.080;22.214;2022-10-31T12:58:20;114.30;;;63.65;;
21802;SDS011;18591;47.080;22.214;2022-10-31T13:00:26;106.20;;;61.33;;
21802;SDS011;18591;47.080;22.214;2022-10-31T13:04:54;130.15;;;70.35;;
21802;SDS011;18591;47.080;22.214;2022-10-31T13:07:00;117.10;;;69.47;;
21802;SDS011;18591;47.080;22.214;2022-10-31T13:09:10;88.75;;;51.35;;
21802;SDS011;18591;47.080;22.214;2022-10-31T13:11:25;87.32;;;51.38;;
21802;SDS011;18591;47.080;22.214;2022-10-31T13:14:34;49.30;;;33.08;;
21802;SDS011;18591;47.080;22.214;2022-10-31T13:16:14;51.53;;;41.47;;
21802;SDS011;18591;47.080;22.214;2022-10-31T13:18:29;48.15;;;39.03;;
21802;SDS011;18591;47.080;22.214;2022-10-31T13:20:38;45.28;;;33.55;;
21802;SDS011;18591;47.080;22.214;2022-10-31T13:22:54;38.28;;;29.83;;
21802;SDS011;18591;47.080;22.214;2022-10-31T13:25:24;35.50;;;26.90;;
21802;SDS011;18591;47.080;22.214;2022-10-31T13:27:42;40.40;;;28.90;;
21802;SDS011;18591;47.080;22.214;2022-10-31T13:30:04;37.25;;;26.52;;
21802;SDS011;18591;47.080;22.214;2022-10-31T13:32:27;34.72;;;26.63;;
21802;SDS011;18591;47.080;22.214;2022-10-31T13:34:40;32.95;;;24.65;;
21802;SDS011;18591;47.080;22.214;2022-10-31T13:41:45;34.13;;;25.73;;
21802;SDS011;18591;47.080;22.214;2022-10-31T13:46:21;31.38;;;23.25;;
21802;SDS011;18591;47.080;22.214;2022-10-31T13:48:38;28.52;;;22.65;;
21802;SDS011;18591;47.080;22.214;2022-10-31T13:50:57;29.45;;;23.60;;
21802;SDS011;18591;47.080;22.214;2022-10-31T13:57:47;27.92;;;21.48;;
21802;SDS011;18591;47.080;22.214;2022-10-31T13:59:54;28.13;;;23.10;;
21802;SDS011;18591;47.080;22.214;2022-10-31T14:01:59;30.48;;;22.23;;
21802;SDS011;18591;47.080;22.214;2022-10-31T14:04:05;31.35;;;24.15;;
21802;SDS011;18591;47.080;22.214;2022-10-31T14:06:34;37.97;;;27.00;;
21802;SDS011;18591;47.080;22.214;2022-10-31T14:11:28;52.78;;;35.22;;
21802;SDS011;18591;47.080;22.214;2022-10-31T14:13:38;54.30;;;34.70;;
21802;SDS011;18591;47.080;22.214;2022-10-31T14:15:53;52.97;;;35.50;;
21802;SDS011;18591;47.080;22.214;2022-10-31T14:18:06;87.05;;;51.80;;
21802;SDS011;18591;47.080;22.214;2022-10-31T14:22:46;58.38;;;38.78;;
21802;SDS011;18591;47.080;22.214;2022-10-31T14:24:48;62.88;;;40.58;;
21802;SDS011;18591;47.080;22.214;2022-10-31T14:26:56;56.72;;;36.35;;
21802;SDS011;18591;47.080;22.214;2022-10-31T14:31:34;56.30;;;38.15;;
21802;SDS011;18591;47.080;22.214;2022-10-31T14:33:42;57.17;;;38.95;;
21802;SDS011;18591;47.080;22.214;2022-10-31T14:38:05;46.60;;;32.58;;
21802;SDS011;18591;47.080;22.214;2022-10-31T14:45:14;41.40;;;29.08;;